createdAt,value
2022-09-28T00:01:10.506Z,1.92
2022-09-28T00:03:37.764Z,1.55
2022-09-28T00:06:08.273Z,1.33
2022-09-28T00:08:36.736Z,1.98
2022-09-28T00:11:05.920Z,1.70
2022-09-28T00:13:33.508Z,2.10
2022-09-28T00:16:08.011Z,1.40
2022-09-28T00:18:36.173Z,1.40
2022-09-28T00:21:09.299Z,1.80
2022-09-28T00:23:59.908Z,1.50
2022-09-28T00:26:28.459Z,2.00
2022-09-28T00:28:59.252Z,1.52
2022-09-28T00:31:33.578Z,1.77
2022-09-28T00:34:05.350Z,1.15
2022-09-28T00:36:33.471Z,1.80
2022-09-28T00:39:06.531Z,1.60
2022-09-28T00:41:34.989Z,1.65
2022-09-28T00:44:39.532Z,2.00
2022-09-28T00:47:18.339Z,1.45
2022-09-28T00:50:02.905Z,2.20
2022-09-28T00:52:47.277Z,1.80
2022-09-28T00:55:18.899Z,1.92
2022-09-28T00:57:52.437Z,2.00
2022-09-28T01:00:19.921Z,2.10
2022-09-28T01:02:47.797Z,2.13
2022-09-28T01:05:16.440Z,1.73
2022-09-28T01:07:47.429Z,2.55
2022-09-28T01:10:17.942Z,1.80
2022-09-28T01:12:45.199Z,2.00
2022-09-28T01:15:12.543Z,1.90
2022-09-28T01:18:11.338Z,2.08
2022-09-28T01:20:47.295Z,1.98
2022-09-28T01:23:51.106Z,1.75
2022-09-28T01:26:36.273Z,2.05
2022-09-28T01:29:31.047Z,2.33
2022-09-28T01:32:16.217Z,2.35
2022-09-28T01:35:02.057Z,2.75
2022-09-28T01:37:46.602Z,2.42
2022-09-28T01:40:15.772Z,2.88
2022-09-28T01:42:46.650Z,1.77
2022-09-28T01:45:31.331Z,2.00
2022-09-28T01:48:02.645Z,1.90
2022-09-28T01:50:34.633Z,1.30
2022-09-28T01:53:18.774Z,1.35
2022-09-28T01:56:02.095Z,1.40
2022-09-28T01:58:55.429Z,0.95
2022-09-28T02:01:36.510Z,1.33
2022-09-28T02:04:16.753Z,1.05
2022-09-28T02:07:02.539Z,1.20
2022-09-28T02:09:38.117Z,0.68
2022-09-28T02:12:23.053Z,1.17
2022-09-28T02:14:56.075Z,0.90
2022-09-28T02:17:23.217Z,0.98
2022-09-28T02:19:50.377Z,0.60
2022-09-28T02:22:25.624Z,0.68
2022-09-28T02:25:05.971Z,1.33
2022-09-28T02:27:48.314Z,0.68
2022-09-28T02:30:18.778Z,0.98
2022-09-28T02:32:49.177Z,0.70
2022-09-28T02:35:18.745Z,0.60
2022-09-28T02:37:46.316Z,1.08
2022-09-28T02:40:19.559Z,0.60
2022-09-28T02:43:27.743Z,0.47
2022-09-28T02:46:27.165Z,0.77
2022-09-28T02:49:29.695Z,0.65
2022-09-28T02:52:14.726Z,0.60
2022-09-28T02:55:17.505Z,0.77
2022-09-28T02:58:11.246Z,0.50
2022-09-28T03:00:44.839Z,0.45
2022-09-28T03:03:46.796Z,1.63
2022-09-28T03:06:30.341Z,0.60
2022-09-28T03:09:21.800Z,0.40
2022-09-28T03:12:09.941Z,0.35
2022-09-28T03:14:37.064Z,0.50
2022-09-28T03:17:04.077Z,0.45
2022-09-28T03:19:34.286Z,0.77
2022-09-28T03:22:01.786Z,1.15
2022-09-28T03:24:28.966Z,0.40
2022-09-28T03:26:55.985Z,0.57
2022-09-28T03:29:23.225Z,0.82
2022-09-28T03:31:57.302Z,0.60
2022-09-28T03:34:24.355Z,0.40
2022-09-28T03:36:51.896Z,0.57
2022-09-28T03:39:19.359Z,0.40
2022-09-28T03:41:46.337Z,0.50
2022-09-28T03:44:13.784Z,0.40
2022-09-28T03:46:43.938Z,0.80
2022-09-28T03:49:16.593Z,0.35
2022-09-28T03:51:43.720Z,0.40
2022-09-28T03:54:10.690Z,0.40
2022-09-28T03:56:37.553Z,0.40
2022-09-28T03:59:07.584Z,0.50
2022-09-28T04:01:36.179Z,0.40
2022-09-28T04:04:05.709Z,0.30
2022-09-28T04:06:33.004Z,0.40
2022-09-28T04:09:00.255Z,0.40
2022-09-28T04:11:28.432Z,0.40
2022-09-28T04:14:02.251Z,0.50
2022-09-28T04:16:30.633Z,0.60
2022-09-28T04:19:10.557Z,0.30
2022-09-28T04:21:40.860Z,0.30
2022-09-28T04:24:11.517Z,0.30
2022-09-28T04:26:38.596Z,0.30
2022-09-28T04:29:19.264Z,0.52
2022-09-28T04:31:57.183Z,0.47
2022-09-28T04:34:44.388Z,0.30
2022-09-28T04:37:12.379Z,0.38
2022-09-28T04:39:43.944Z,0.28
2022-09-28T04:42:14.565Z,0.40
2022-09-28T04:44:41.782Z,0.30
2022-09-28T04:47:09.928Z,0.40
2022-09-28T04:49:48.784Z,0.98
2022-09-28T04:52:24.655Z,0.28
2022-09-28T04:54:53.009Z,2.20
2022-09-28T04:57:20.056Z,1.00
2022-09-28T04:59:46.943Z,0.63
2022-09-28T05:02:15.431Z,0.40
2022-09-28T05:05:11.761Z,0.60
2022-09-28T05:07:48.329Z,1.23
2022-09-28T05:10:20.035Z,0.30
2022-09-28T05:12:47.573Z,0.50
2022-09-28T05:15:14.748Z,0.60
2022-09-28T05:17:42.103Z,0.70
2022-09-28T05:20:28.758Z,0.52
2022-09-28T05:22:56.408Z,0.47
2022-09-28T05:25:23.731Z,0.60
2022-09-28T05:28:03.914Z,0.98
2022-09-28T05:30:40.022Z,1.02
2022-09-28T05:33:26.518Z,0.50
2022-09-28T05:36:10.990Z,0.55
2022-09-28T05:38:38.363Z,0.80
2022-09-28T05:41:06.922Z,0.60
2022-09-28T05:43:34.238Z,0.70
2022-09-28T05:46:04.591Z,0.40
2022-09-28T05:48:32.353Z,0.45
2022-09-28T05:50:59.692Z,0.40
2022-09-28T05:53:26.803Z,0.70
2022-09-28T05:55:57.425Z,0.40
2022-09-28T06:00:56.059Z,0.93
2022-09-28T06:03:23.575Z,0.60
2022-09-28T06:05:50.984Z,0.57
2022-09-28T06:08:18.439Z,0.40
2022-09-28T06:10:50.674Z,0.60
2022-09-28T06:13:19.981Z,0.63
2022-09-28T06:15:47.094Z,0.73
2022-09-28T06:18:17.143Z,0.77
2022-09-28T06:21:10.821Z,0.50
2022-09-28T06:23:46.875Z,1.27
2022-09-28T06:26:17.587Z,0.70
2022-09-28T06:28:45.391Z,0.47
2022-09-28T06:31:12.559Z,0.60
2022-09-28T06:33:48.929Z,0.73
2022-09-28T06:36:19.713Z,0.70
2022-09-28T06:38:47.292Z,0.80
2022-09-28T06:41:20.000Z,0.73
2022-09-28T06:43:48.441Z,0.80
2022-09-28T06:46:34.172Z,1.20
2022-09-28T06:49:19.911Z,0.73
2022-09-28T06:52:16.737Z,0.50
2022-09-28T06:55:04.241Z,0.57
2022-09-28T06:57:45.045Z,0.50
2022-09-28T07:00:12.949Z,0.80
2022-09-28T07:02:40.226Z,0.60
2022-09-28T07:05:29.862Z,1.85
2022-09-28T07:08:26.672Z,0.68
2022-09-28T07:11:26.766Z,0.85
2022-09-28T07:14:24.815Z,0.82
2022-09-28T07:17:12.516Z,1.02
2022-09-28T07:19:39.945Z,0.63
2022-09-28T07:22:07.018Z,0.73
2022-09-28T07:24:34.165Z,0.68
2022-09-28T07:27:20.126Z,0.60
2022-09-28T07:30:12.480Z,0.60
2022-09-28T07:33:07.476Z,0.60
2022-09-28T07:35:55.890Z,0.80
2022-09-28T07:38:27.439Z,0.70
2022-09-28T07:41:11.810Z,0.90
2022-09-28T07:43:44.235Z,0.90
2022-09-28T07:46:12.384Z,0.82
2022-09-28T07:48:45.967Z,0.88
2022-09-28T07:51:45.188Z,1.48
2022-09-28T07:54:23.830Z,0.80
2022-09-28T07:57:24.286Z,0.60
2022-09-28T08:00:05.530Z,0.93
2022-09-28T08:02:43.371Z,0.63
2022-09-28T08:05:12.484Z,1.35
2022-09-28T08:07:39.664Z,0.80
2022-09-28T08:10:09.576Z,0.80
2022-09-28T08:12:59.195Z,0.65
2022-09-28T08:15:51.917Z,0.85
2022-09-28T08:18:25.981Z,2.25
2022-09-28T08:21:14.612Z,0.60
2022-09-28T08:23:41.675Z,0.70
2022-09-28T08:26:13.275Z,0.70
2022-09-28T08:28:45.120Z,0.60
2022-09-28T08:31:48.606Z,1.00
2022-09-28T08:34:39.803Z,0.50
2022-09-28T08:37:44.668Z,1.25
2022-09-28T08:40:53.665Z,0.68
2022-09-28T08:44:00.663Z,1.25
2022-09-28T08:46:49.513Z,1.10
2022-09-28T08:49:47.516Z,0.70
2022-09-28T08:52:39.421Z,0.60
2022-09-28T08:55:34.933Z,0.90
2022-09-28T08:58:16.424Z,0.70
2022-09-28T09:00:51.120Z,1.00
2022-09-28T09:03:31.411Z,0.73
2022-09-28T09:06:28.544Z,0.63
2022-09-28T09:09:33.495Z,0.70
2022-09-28T09:12:08.258Z,0.73
2022-09-28T09:14:46.660Z,0.65
2022-09-28T09:17:35.330Z,0.70
2022-09-28T09:20:50.365Z,0.40
2022-09-28T09:24:27.083Z,0.30
2022-09-28T09:27:24.854Z,0.35
2022-09-28T09:30:19.780Z,0.45
2022-09-28T09:33:06.961Z,0.40
2022-09-28T09:36:09.851Z,0.85
2022-09-28T09:42:57.311Z,0.40
2022-09-28T09:46:24.233Z,0.40
2022-09-28T09:49:24.977Z,0.40
2022-09-28T09:52:08.193Z,0.30
2022-09-28T09:54:53.236Z,0.50
2022-09-28T09:57:41.502Z,0.30
2022-09-28T10:00:27.476Z,0.52
2022-09-28T10:03:07.401Z,0.57
2022-09-28T10:05:43.169Z,0.40
2022-09-28T10:08:17.934Z,0.32
2022-09-28T10:10:53.086Z,0.20
2022-09-28T10:13:21.230Z,0.45
2022-09-28T10:15:51.380Z,0.47
2022-09-28T10:18:36.810Z,0.82
2022-09-28T10:21:41.162Z,0.55
2022-09-28T10:24:34.616Z,0.40
2022-09-28T10:27:08.549Z,0.60
2022-09-28T10:29:44.644Z,0.40
2022-09-28T10:32:23.327Z,0.45
2022-09-28T10:34:55.187Z,0.50
2022-09-28T10:37:28.812Z,0.50
2022-09-28T10:40:39.595Z,0.63
2022-09-28T10:43:15.813Z,0.30
2022-09-28T10:45:44.880Z,0.70
2022-09-28T10:48:22.625Z,0.50
2022-09-28T10:51:39.774Z,0.30
2022-09-28T10:54:20.014Z,0.40
2022-09-28T10:56:53.225Z,0.50
2022-09-28T10:59:30.535Z,0.85
2022-09-28T11:02:36.375Z,1.40
2022-09-28T11:05:21.895Z,0.30
2022-09-28T11:07:51.875Z,0.80
2022-09-28T11:10:29.729Z,0.30
2022-09-28T11:13:02.367Z,0.30
2022-09-28T11:15:33.341Z,0.30
2022-09-28T11:18:34.419Z,0.90
2022-09-28T11:21:15.830Z,0.50
2022-09-28T11:24:19.502Z,0.30
2022-09-28T11:26:50.391Z,0.35
2022-09-28T11:29:46.172Z,0.43
2022-09-28T11:32:40.286Z,0.30
2022-09-28T11:36:17.184Z,0.40
2022-09-28T11:38:51.209Z,0.40
2022-09-28T11:41:48.179Z,0.30
2022-09-28T11:44:48.568Z,0.60
2022-09-28T11:47:38.880Z,0.20
2022-09-28T11:50:25.421Z,0.50
2022-09-28T11:53:15.475Z,0.40
2022-09-28T11:56:19.044Z,1.77
2022-09-28T11:58:52.214Z,0.30
2022-09-28T12:01:38.975Z,0.30
2022-09-28T12:04:44.458Z,0.22
2022-09-28T12:07:18.953Z,0.20
2022-09-28T12:09:55.457Z,0.30
2022-09-28T12:12:49.086Z,0.22
2022-09-28T12:15:26.742Z,0.30
2022-09-28T12:18:00.426Z,0.22
2022-09-28T12:20:32.440Z,0.30
2022-09-28T12:23:24.416Z,0.20
2022-09-28T12:26:11.971Z,0.32
2022-09-28T12:28:47.679Z,0.30
2022-09-28T12:31:34.519Z,0.40
2022-09-28T12:34:03.197Z,0.40
2022-09-28T12:36:54.978Z,0.30
2022-09-28T12:39:56.878Z,0.30
2022-09-28T12:42:39.205Z,0.40
2022-09-28T12:45:23.079Z,0.32
2022-09-28T12:48:27.123Z,0.30
2022-09-28T12:50:58.146Z,0.30
2022-09-28T12:53:41.522Z,0.40
2022-09-28T12:56:22.234Z,0.55
2022-09-28T13:01:44.690Z,0.35
2022-09-28T13:04:51.359Z,0.30
2022-09-28T13:07:32.821Z,0.28
2022-09-28T13:10:14.768Z,0.20
2022-09-28T13:15:32.233Z,0.20
2022-09-28T13:18:00.461Z,0.20
2022-09-28T13:20:48.026Z,0.20
2022-09-28T13:23:34.320Z,0.28
2022-09-28T13:26:14.027Z,0.28
2022-09-28T13:28:45.426Z,0.20
2022-09-28T13:31:18.569Z,0.40
2022-09-28T13:33:46.908Z,0.22
2022-09-28T13:36:26.790Z,0.35
2022-09-28T13:38:56.029Z,0.60
2022-09-28T13:41:42.604Z,0.30
2022-09-28T13:44:12.817Z,0.20
2022-09-28T13:46:56.311Z,0.35
2022-09-28T13:49:42.159Z,0.30
2022-09-28T13:52:27.399Z,0.20
2022-09-28T13:55:03.633Z,0.30
2022-09-28T13:57:42.072Z,0.90
2022-09-28T14:00:12.018Z,0.50
2022-09-28T14:02:48.167Z,0.60
2022-09-28T14:05:25.165Z,0.30
2022-09-28T14:08:00.499Z,0.30
2022-09-28T14:10:49.768Z,0.20
2022-09-28T14:13:42.545Z,0.20
2022-09-28T14:16:18.543Z,0.10
2022-09-28T14:18:51.739Z,0.20
2022-09-28T14:21:58.569Z,0.20
2022-09-28T14:25:06.568Z,0.30
2022-09-28T14:28:11.398Z,0.20
2022-09-28T14:30:41.737Z,0.30
2022-09-28T14:33:20.791Z,0.20
2022-09-28T14:35:58.338Z,0.25
2022-09-28T14:38:52.246Z,0.30
2022-09-28T14:41:41.920Z,0.22
2022-09-28T14:44:16.481Z,0.30
2022-09-28T14:46:45.862Z,0.30
2022-09-28T14:49:19.621Z,1.25
2022-09-28T14:51:56.029Z,0.20
2022-09-28T14:54:29.988Z,0.30
2022-09-28T14:57:16.895Z,0.70
2022-09-28T14:59:46.332Z,0.20
2022-09-28T15:02:33.491Z,0.20
2022-09-28T15:05:07.260Z,0.20
2022-09-28T15:07:50.827Z,0.30
2022-09-28T15:10:27.515Z,0.20
2022-09-28T15:12:57.155Z,0.20
2022-09-28T15:15:40.108Z,0.20
2022-09-28T15:18:19.537Z,0.20
2022-09-28T15:20:49.064Z,0.20
2022-09-28T15:23:35.950Z,0.20
2022-09-28T15:26:07.206Z,0.55
2022-09-28T15:28:36.494Z,0.25
2022-09-28T15:31:05.283Z,0.20
2022-09-28T15:33:53.136Z,0.20
2022-09-28T15:36:29.997Z,0.47
2022-09-28T15:39:04.227Z,0.30
2022-09-28T15:41:31.584Z,0.20
2022-09-28T15:44:11.068Z,0.30
2022-09-28T15:46:41.606Z,0.40
2022-09-28T15:49:39.108Z,0.30
2022-09-28T15:52:06.469Z,0.40
2022-09-28T15:54:43.366Z,0.90
2022-09-28T15:57:39.080Z,0.13
2022-09-28T16:00:40.518Z,0.40
2022-09-28T16:03:10.186Z,0.37
2022-09-28T16:05:42.995Z,0.50
2022-09-28T16:08:38.529Z,0.30
2022-09-28T16:11:17.960Z,0.47
2022-09-28T16:14:04.512Z,0.30
2022-09-28T16:16:41.197Z,0.30
2022-09-28T16:19:26.124Z,0.47
2022-09-28T16:21:57.798Z,0.28
2022-09-28T16:24:33.892Z,0.40
2022-09-28T16:27:22.127Z,0.30
2022-09-28T16:30:10.339Z,0.50
2022-09-28T16:32:41.831Z,0.40
2022-09-28T16:35:11.709Z,0.68
2022-09-28T16:37:42.949Z,0.30
2022-09-28T16:40:10.887Z,0.52
2022-09-28T16:42:40.209Z,0.50
2022-09-28T16:45:12.861Z,0.40
2022-09-28T16:47:40.621Z,0.30
2022-09-28T16:50:08.052Z,0.40
2022-09-28T16:52:56.789Z,0.43
2022-09-28T16:55:39.913Z,0.70
2022-09-28T16:58:08.202Z,0.60
2022-09-28T17:00:35.169Z,1.40
2022-09-28T17:03:05.364Z,0.90
2022-09-28T17:05:32.286Z,0.70
2022-09-28T17:08:05.855Z,0.60
2022-09-28T17:10:55.713Z,0.43
2022-09-28T17:13:31.624Z,0.50
2022-09-28T17:16:03.160Z,0.60
2022-09-28T17:18:32.976Z,0.40
2022-09-28T17:21:03.582Z,0.40
2022-09-28T17:23:30.942Z,0.50
2022-09-28T17:25:59.051Z,0.40
2022-09-28T17:28:34.459Z,0.60
2022-09-28T17:31:02.239Z,1.23
2022-09-28T17:33:30.013Z,1.38
2022-09-28T17:36:04.554Z,0.80
2022-09-28T17:38:32.056Z,1.27
2022-09-28T17:40:59.031Z,1.20
2022-09-28T17:43:26.212Z,1.95
2022-09-28T17:45:53.269Z,2.40
2022-09-28T17:48:24.400Z,1.25
2022-09-28T17:50:51.537Z,1.27
2022-09-28T17:53:18.586Z,1.05
2022-09-28T17:55:45.516Z,1.25
2022-09-28T17:58:21.320Z,0.90
2022-09-28T18:00:50.494Z,0.77
2022-09-28T18:03:21.222Z,0.70
2022-09-28T18:06:06.749Z,0.63
2022-09-28T18:08:33.972Z,1.00
2022-09-28T18:11:01.756Z,0.80
2022-09-28T18:13:29.151Z,0.98
2022-09-28T18:15:56.505Z,0.80
2022-09-28T18:18:24.639Z,1.05
2022-09-28T18:20:53.067Z,1.98
2022-09-28T18:23:21.267Z,1.52
2022-09-28T18:25:49.428Z,1.70
2022-09-28T18:28:18.165Z,1.90
2022-09-28T18:30:45.888Z,1.80
2022-09-28T18:33:14.507Z,2.05
2022-09-28T18:35:50.162Z,1.50
2022-09-28T18:38:17.396Z,1.58
2022-09-28T18:40:44.428Z,1.50
2022-09-28T18:43:11.554Z,1.67
2022-09-28T18:45:39.208Z,2.38
2022-09-28T18:48:06.317Z,2.60
2022-09-28T18:50:34.433Z,3.80
2022-09-28T18:53:11.539Z,7.05
2022-09-28T18:55:40.727Z,3.60
2022-09-28T18:58:09.922Z,2.83
2022-09-28T19:00:44.129Z,3.08
2022-09-28T19:03:12.186Z,3.80
2022-09-28T19:05:43.814Z,2.60
2022-09-28T19:08:11.251Z,2.20
2022-09-28T19:10:46.077Z,2.92
2022-09-28T19:13:13.197Z,2.20
2022-09-28T19:15:40.249Z,2.20
2022-09-28T19:18:07.597Z,2.05
2022-09-28T19:20:34.852Z,3.50
2022-09-28T19:23:05.576Z,2.95
2022-09-28T19:25:32.534Z,3.80
2022-09-28T19:27:59.600Z,2.67
2022-09-28T19:30:26.646Z,4.70
2022-09-28T19:32:53.665Z,4.03
2022-09-28T19:35:20.723Z,3.65
2022-09-28T19:37:49.061Z,4.38
2022-09-28T19:40:17.368Z,3.92
2022-09-28T19:42:44.407Z,4.15
2022-09-28T19:45:11.509Z,4.20
2022-09-28T19:47:39.132Z,3.50
2022-09-28T19:50:06.946Z,3.85
2022-09-28T19:52:35.530Z,3.30
2022-09-28T19:55:02.939Z,3.00
2022-09-28T19:57:31.861Z,4.15
2022-09-28T20:00:03.118Z,3.03
2022-09-28T20:02:35.191Z,3.85
2022-09-28T20:05:05.580Z,3.50
2022-09-28T20:07:34.781Z,2.50
2022-09-28T20:10:01.994Z,2.67
2022-09-28T20:12:29.010Z,3.05
2022-09-28T20:14:56.030Z,3.03
2022-09-28T20:17:35.448Z,2.65
2022-09-28T20:20:03.850Z,2.53
2022-09-28T20:22:31.027Z,2.42
2022-09-28T20:24:58.038Z,2.30
2022-09-28T20:27:27.227Z,1.92
2022-09-28T20:29:54.287Z,2.42
2022-09-28T20:32:21.322Z,2.15
2022-09-28T20:34:48.352Z,2.40
2022-09-28T20:37:17.465Z,2.50
2022-09-28T20:39:45.236Z,3.35
2022-09-28T20:42:14.343Z,3.80
2022-09-28T20:44:45.151Z,2.42
2022-09-28T20:47:12.287Z,2.50
2022-09-28T20:49:39.279Z,2.30
2022-09-28T20:52:07.570Z,2.67
2022-09-28T20:54:38.114Z,2.65
2022-09-28T20:57:17.534Z,1.88
2022-09-28T20:59:45.094Z,2.15
2022-09-28T21:02:13.383Z,1.92
2022-09-28T21:05:01.321Z,1.63
2022-09-28T21:07:29.497Z,1.52
2022-09-28T21:09:56.354Z,1.65
2022-09-28T21:12:26.140Z,2.13
2022-09-28T21:14:53.792Z,2.10
2022-09-28T21:17:20.909Z,1.42
2022-09-28T21:19:47.907Z,1.77
2022-09-28T21:22:14.907Z,1.70
2022-09-28T21:24:41.796Z,1.95
2022-09-28T21:27:09.017Z,1.52
2022-09-28T21:29:35.880Z,1.60
2022-09-28T21:32:02.977Z,1.58
2022-09-28T21:34:33.061Z,2.00
2022-09-28T21:36:59.961Z,1.23
2022-09-28T21:39:26.942Z,1.38
2022-09-28T21:41:54.093Z,1.90
2022-09-28T21:44:21.124Z,1.67
2022-09-28T21:46:48.289Z,2.00
2022-09-28T21:49:15.480Z,2.60
2022-09-28T21:51:42.488Z,2.45
2022-09-28T21:54:09.798Z,3.22
2022-09-28T21:56:36.757Z,2.95
2022-09-28T21:59:05.320Z,2.30
2022-09-28T22:01:32.692Z,4.20
2022-09-28T22:04:00.005Z,2.20
2022-09-28T22:06:30.683Z,2.60
2022-09-28T22:08:57.691Z,2.20
2022-09-28T22:11:27.696Z,3.58
2022-09-28T22:13:57.986Z,2.17
2022-09-28T22:16:30.429Z,2.75
2022-09-28T22:18:58.630Z,2.33
2022-09-28T22:21:28.777Z,1.98
2022-09-28T22:24:02.984Z,2.20
2022-09-28T22:26:32.387Z,3.33
2022-09-28T22:29:05.838Z,2.45
2022-09-28T22:31:36.011Z,2.92
2022-09-28T22:34:03.875Z,3.13
2022-09-28T22:36:31.212Z,2.13
2022-09-28T22:39:02.155Z,2.58
2022-09-28T22:41:29.935Z,1.67
2022-09-28T22:43:57.171Z,1.73
2022-09-28T22:46:27.207Z,2.33
2022-09-28T22:48:58.432Z,1.55
2022-09-28T22:51:27.648Z,1.70
2022-09-28T22:53:54.771Z,1.70
2022-09-28T22:56:21.815Z,2.25
2022-09-28T22:58:48.970Z,2.35
2022-09-28T23:01:21.171Z,2.00
2022-09-28T23:03:49.247Z,1.75
2022-09-28T23:06:18.668Z,2.70
2022-09-28T23:09:09.721Z,1.73
2022-09-28T23:11:37.433Z,1.95
2022-09-28T23:14:07.307Z,2.47
2022-09-28T23:16:34.236Z,2.30
2022-09-28T23:19:01.415Z,2.00
2022-09-28T23:21:28.451Z,1.67
2022-09-28T23:24:05.696Z,2.97
2022-09-28T23:26:37.019Z,3.00
2022-09-28T23:29:04.682Z,2.42
2022-09-28T23:31:33.121Z,1.90
2022-09-28T23:34:04.997Z,6.25
2022-09-28T23:39:00.205Z,5.88
2022-09-28T23:41:27.264Z,2.88
2022-09-28T23:43:54.244Z,2.28
2022-09-28T23:46:21.551Z,2.13
2022-09-28T23:48:49.562Z,2.85
2022-09-28T23:51:16.718Z,2.83
2022-09-28T23:53:43.802Z,2.53
2022-09-28T23:56:11.081Z,2.95
2022-09-28T23:58:38.469Z,3.25
